»·PEaware :: N65415 KIZA-KSBP

N65415 :: KIZA-KSBP

FLIGHT INFORMATION

Flight Status: Arrived
Operator: Privately registered:
United States
More flights under this callsign
Pilot: Stephane C. (508)
Aircraft: CESSNA 172 SKYHAWK
(C172)
More flights by this aircraft type
Origin: KIZA Santa Ynez
United States
Destination: KSBP San Luis Co Regl
United States
More flights between these airports :: More routes between these airports
Route: ORCUT V27 MQO
File this flight plan on PilotEdge
Remarks:
Altitude:
(Current/Filed)
6,000ft
Speed:
(Current/Filed)
110kts
Departed: 11-Feb-19 09:07 AM
Arrived: 11-Feb-19 09:38 AM
Distance/Time
Traveled:
47nm/0:31
Distance/Time
To Go:
Arrived

Flight Plot

Page will automatically refresh every two minutes.

Flight plan parsing failed; only flown route is shown


Map Options




Map Legend


Flown Route
Filed Route
Departure Airport
Arrival Airport
Navaid (VOR, NDB)
Fix

Horizontal Profiles

Position Reports

Time Latitude Longitude Heading Altitude Ground
Speed
11-Feb-19 08:20 34.608022 -120.074428 188 658ft 0kts
11-Feb-19 08:21 34.608022 -120.074428 188 658ft 0kts
11-Feb-19 08:22 34.608022 -120.074428 188 658ft 0kts
11-Feb-19 08:23 34.608022 -120.074428 188 658ft 0kts
11-Feb-19 08:24 34.608022 -120.074428 188 658ft 0kts
11-Feb-19 08:25 34.608022 -120.074428 188 658ft 0kts
11-Feb-19 08:26 34.608022 -120.074428 188 658ft 0kts
11-Feb-19 08:27 34.608022 -120.074428 188 658ft 0kts
11-Feb-19 08:28 34.608022 -120.074428 188 658ft 0kts
11-Feb-19 08:29 34.608022 -120.074428 188 658ft 0kts
11-Feb-19 08:30 34.608022 -120.074428 188 658ft 0kts
11-Feb-19 08:31 34.608022 -120.074428 188 658ft 0kts
11-Feb-19 08:32 34.608022 -120.074428 188 658ft 0kts
11-Feb-19 08:33 34.608022 -120.074428 188 658ft 0kts
11-Feb-19 08:34 34.608022 -120.074428 188 658ft 0kts
11-Feb-19 08:35 34.608022 -120.074428 188 658ft 0kts
11-Feb-19 08:36 34.608022 -120.074428 188 658ft 0kts
11-Feb-19 08:37 34.608022 -120.074428 188 658ft 0kts
11-Feb-19 08:38 34.608022 -120.074428 188 658ft 0kts
11-Feb-19 08:39 34.608022 -120.074428 188 658ft 0kts
11-Feb-19 08:40 34.608022 -120.074428 188 658ft 0kts
11-Feb-19 08:41 34.608022 -120.074428 188 658ft 0kts
11-Feb-19 08:42 34.608022 -120.074428 188 658ft 0kts
11-Feb-19 08:43 34.608022 -120.074428 188 658ft 0kts
11-Feb-19 08:44 34.608022 -120.074428 188 658ft 0kts
11-Feb-19 08:45 34.608022 -120.074428 188 658ft 0kts
11-Feb-19 08:46 34.608022 -120.074428 188 658ft 0kts
11-Feb-19 08:47 34.608022 -120.074428 188 658ft 0kts
11-Feb-19 08:48 34.608022 -120.074428 188 658ft 0kts
11-Feb-19 08:49 34.608022 -120.074428 188 658ft 0kts
11-Feb-19 08:50 34.608022 -120.074428 188 658ft 0kts
11-Feb-19 08:51 34.608022 -120.074428 188 658ft 0kts
11-Feb-19 08:53 34.608022 -120.074428 188 658ft 0kts
11-Feb-19 08:54 34.608022 -120.074428 188 658ft 0kts
11-Feb-19 08:55 34.608022 -120.074428 188 658ft 0kts
11-Feb-19 08:56 34.608022 -120.074428 188 658ft 0kts
11-Feb-19 08:57 34.608022 -120.074428 188 658ft 0kts
11-Feb-19 08:58 34.608022 -120.074428 188 658ft 0kts
11-Feb-19 08:59 34.608022 -120.074428 188 658ft 0kts
11-Feb-19 09:00 34.607129 -120.074693 278 658ft 11kts
11-Feb-19 09:01 34.607722 -120.079748 275 658ft 13kts
11-Feb-19 09:02 34.607866 -120.080047 80 658ft 0kts
11-Feb-19 09:03 34.607866 -120.080047 80 658ft 0kts
11-Feb-19 09:04 34.607869 -120.080024 86 658ft 1kts
11-Feb-19 09:05 34.607766 -120.079961 195 658ft 0kts
11-Feb-19 09:06 34.607410 -120.080048 166 658ft 6kts
11-Feb-19 09:07 34.605424 -120.064285 96 984ft 70kts
11-Feb-19 09:08 34.613942 -120.050361 319 1709ft 81kts
11-Feb-19 09:08 34.617057 -120.073551 274 2271ft 85kts
11-Feb-19 09:10 34.617908 -120.107268 275 3024ft 85kts
11-Feb-19 09:11 34.618706 -120.136200 275 3636ft 86kts
11-Feb-19 09:12 34.622508 -120.164719 304 4184ft 85kts
11-Feb-19 09:13 34.639368 -120.183281 328 4687ft 81kts
11-Feb-19 09:13 34.655356 -120.195054 332 5087ft 80kts
11-Feb-19 09:15 34.676731 -120.213387 324 5607ft 81kts
11-Feb-19 09:16 34.694690 -120.229902 327 6004ft 83kts
11-Feb-19 09:16 34.712794 -120.245811 328 6027ft 105kts
11-Feb-19 09:17 34.737426 -120.267474 327 5956ft 110kts
11-Feb-19 09:18 34.761509 -120.290614 327 5936ft 109kts
11-Feb-19 09:19 34.785616 -120.312718 328 5968ft 108kts
11-Feb-19 09:20 34.809942 -120.335651 314 5927ft 115kts
11-Feb-19 09:21 34.834213 -120.361478 315 5958ft 113kts
11-Feb-19 09:22 34.855580 -120.388585 304 5993ft 111kts
11-Feb-19 09:23 34.877432 -120.412878 318 6032ft 103kts
11-Feb-19 09:24 34.900026 -120.434979 322 6007ft 105kts
11-Feb-19 09:25 34.923137 -120.456262 322 6017ft 104kts
11-Feb-19 09:26 34.951864 -120.466617 348 5673ft 112kts
11-Feb-19 09:27 34.982494 -120.473213 345 5219ft 111kts
11-Feb-19 09:28 35.013314 -120.480740 347 4713ft 113kts
11-Feb-19 09:29 35.044496 -120.487204 346 4219ft 113kts
11-Feb-19 09:30 35.074997 -120.495311 345 3798ft 111kts
11-Feb-19 09:31 35.105166 -120.505459 341 3350ft 112kts
11-Feb-19 09:32 35.135982 -120.519402 338 2802ft 119kts
11-Feb-19 09:33 35.165996 -120.536367 334 2222ft 119kts
11-Feb-19 09:34 35.191932 -120.560542 308 1625ft 117kts
11-Feb-19 09:35 35.209984 -120.592726 306 891ft 110kts
11-Feb-19 09:36 35.224854 -120.618873 307 418ft 71kts
11-Feb-19 09:37 35.235163 -120.637007 308 185ft 38kts
11-Feb-19 09:38 35.237036 -120.638318 125 184ft 19kts
11-Feb-19 09:39 35.238601 -120.637703 271 184ft 0kts
11-Feb-19 09:40 35.238601 -120.637711 271 184ft 0kts

Navigation Log

Ident Type
Flight plan parsing failed, navigation log unavailable